createdAt,value
2018-10-21T00:04:40.492Z,60.00
2018-10-21T00:09:31.389Z,59.50
2018-10-21T00:14:22.293Z,59.60
2018-10-21T00:19:13.994Z,59.70
2018-10-21T00:24:05.644Z,59.70
2018-10-21T00:28:56.547Z,59.70
2018-10-21T00:33:48.207Z,59.80
2018-10-21T00:38:39.205Z,59.60
2018-10-21T00:43:30.100Z,59.70
2018-10-21T00:48:21.003Z,59.70
2018-10-21T00:53:11.900Z,59.70
2018-10-21T00:58:03.516Z,59.80
2018-10-21T01:02:54.430Z,59.70
2018-10-21T01:07:46.064Z,59.70
2018-10-21T01:12:37.033Z,59.70
2018-10-21T01:17:28.623Z,59.70
2018-10-21T01:22:19.525Z,59.70
2018-10-21T01:27:10.539Z,59.70
2018-10-21T01:32:01.376Z,59.80
2018-10-21T01:36:53.131Z,59.80
2018-10-21T01:41:43.920Z,59.70
2018-10-21T01:46:34.801Z,59.70
2018-10-21T01:51:26.445Z,59.70
2018-10-21T01:56:17.348Z,59.70
2018-10-21T02:01:08.990Z,59.70
2018-10-21T02:05:59.903Z,59.70
2018-10-21T02:10:51.535Z,59.70
2018-10-21T02:15:42.434Z,59.70
2018-10-21T02:20:33.347Z,59.70
2018-10-21T02:25:24.242Z,59.70
2018-10-21T02:30:15.146Z,59.80
2018-10-21T02:35:06.786Z,59.80
2018-10-21T02:39:57.685Z,59.60
2018-10-21T02:44:48.584Z,59.80
2018-10-21T02:49:39.477Z,59.70
2018-10-21T02:54:30.368Z,59.80
2018-10-21T02:59:21.287Z,59.80
2018-10-21T03:04:12.192Z,59.90
2018-10-21T03:09:03.095Z,59.80
2018-10-21T03:13:55.468Z,59.90
2018-10-21T03:18:46.375Z,59.90
2018-10-21T03:23:38.023Z,59.90
2018-10-21T03:28:28.950Z,59.80
2018-10-21T03:33:20.052Z,59.80
2018-10-21T03:38:10.748Z,59.80
2018-10-21T03:43:02.377Z,59.80
2018-10-21T03:47:53.282Z,59.70
2018-10-21T03:52:44.167Z,59.70
2018-10-21T03:57:35.812Z,59.90
2018-10-21T04:02:26.726Z,59.80
2018-10-21T04:07:18.436Z,59.80
2018-10-21T04:12:09.327Z,59.80
2018-10-21T04:17:00.256Z,59.80
2018-10-21T04:21:51.891Z,59.80
2018-10-21T04:26:42.784Z,59.80
2018-10-21T04:31:33.672Z,59.80
2018-10-21T04:36:25.302Z,59.70
2018-10-21T04:41:16.205Z,59.70
2018-10-21T04:46:07.920Z,59.70
2018-10-21T04:50:58.747Z,59.70
2018-10-21T04:55:49.757Z,59.80
2018-10-21T05:00:40.757Z,59.70
2018-10-21T05:05:32.364Z,59.70
2018-10-21T05:10:23.246Z,59.60
2018-10-21T05:15:14.896Z,59.70
2018-10-21T05:20:05.778Z,59.70
2018-10-21T05:24:58.232Z,59.60
2018-10-21T05:29:49.121Z,59.60
2018-10-21T05:34:40.050Z,59.60
2018-10-21T05:39:31.683Z,59.70
2018-10-21T05:44:22.689Z,59.70
2018-10-21T05:49:14.395Z,59.70
2018-10-21T05:54:05.363Z,59.60
2018-10-21T05:58:56.252Z,59.60
2018-10-21T06:03:47.179Z,59.70
2018-10-21T06:08:38.822Z,59.90
2018-10-21T06:13:29.711Z,59.80
2018-10-21T06:18:20.591Z,59.80
2018-10-21T06:23:12.238Z,60.00
2018-10-21T06:28:03.156Z,60.00
2018-10-21T06:32:54.798Z,60.10
2018-10-21T06:37:45.689Z,60.10
2018-10-21T06:42:36.574Z,60.10
2018-10-21T06:47:28.215Z,60.20
2018-10-21T06:52:19.109Z,60.20
2018-10-21T06:57:10.907Z,60.90
2018-10-21T07:02:01.656Z,60.30
2018-10-21T07:06:53.294Z,61.00
2018-10-21T07:11:44.197Z,60.40
2018-10-21T07:16:35.193Z,60.40
2018-10-21T07:21:26.805Z,60.30
2018-10-21T07:26:17.756Z,60.30
2018-10-21T07:31:08.723Z,60.20
2018-10-21T07:36:00.395Z,61.10
2018-10-21T07:40:52.020Z,62.70
2018-10-21T07:45:42.956Z,62.60
2018-10-21T07:50:34.679Z,64.70
2018-10-21T07:55:25.974Z,64.10
2018-10-21T08:00:17.625Z,66.90
2018-10-21T08:05:08.579Z,66.80
2018-10-21T08:10:00.303Z,65.70
2018-10-21T08:14:51.258Z,65.60
2018-10-21T08:19:43.660Z,65.10
2018-10-21T08:24:34.568Z,65.10
2018-10-21T08:29:25.463Z,64.70
2018-10-21T08:34:17.215Z,64.70
2018-10-21T08:39:08.026Z,64.70
2018-10-21T08:43:59.711Z,65.40
2018-10-21T08:48:51.395Z,66.40
2018-10-21T08:53:43.023Z,67.20
2018-10-21T08:58:33.911Z,67.20
2018-10-21T09:03:24.830Z,66.30
2018-10-21T09:08:15.737Z,67.20
2018-10-21T09:13:06.682Z,66.70
2018-10-21T09:17:57.565Z,67.90
2018-10-21T09:22:48.500Z,67.20
2018-10-21T09:27:39.471Z,68.60
2018-10-21T09:32:31.106Z,68.40
2018-10-21T09:37:22.018Z,68.30
2018-10-21T09:42:12.995Z,68.40
2018-10-21T09:47:03.952Z,68.70
2018-10-21T09:51:54.855Z,67.60
2018-10-21T09:56:46.494Z,67.30
2018-10-21T10:01:43.798Z,67.30
2018-10-21T10:06:34.727Z,67.40
2018-10-21T10:11:26.378Z,67.20
2018-10-21T10:16:17.351Z,67.10
2018-10-21T10:21:08.242Z,65.70
2018-10-21T10:25:59.888Z,65.70
2018-10-21T10:30:50.798Z,65.70
2018-10-21T10:35:42.453Z,65.40
2018-10-21T10:40:33.347Z,64.70
2018-10-21T10:45:24.988Z,64.10
2018-10-21T10:50:15.884Z,64.10
2018-10-21T10:55:06.920Z,63.70
2018-10-21T10:59:57.916Z,63.20
2018-10-21T11:04:48.652Z,62.60
2018-10-21T11:09:39.535Z,62.60
2018-10-21T11:14:30.539Z,62.40
2018-10-21T11:19:21.405Z,61.60
2018-10-21T11:24:12.295Z,61.10
2018-10-21T11:29:03.971Z,60.20
2018-10-21T11:33:56.427Z,60.20
2018-10-21T11:38:47.406Z,60.20
2018-10-21T11:43:38.347Z,59.80
2018-10-21T11:48:30.018Z,59.40
2018-10-21T11:53:21.656Z,59.00
2018-10-21T11:58:12.650Z,59.00
2018-10-21T12:03:04.223Z,58.30
2018-10-21T12:07:55.186Z,58.10
2018-10-21T12:12:46.088Z,58.30
2018-10-21T12:17:37.790Z,58.00
2018-10-21T12:22:29.502Z,58.10
2018-10-21T12:27:20.444Z,58.00
2018-10-21T12:32:12.078Z,58.10
2018-10-21T12:37:02.983Z,57.90
2018-10-21T12:41:53.881Z,58.30
2018-10-21T12:52:02.604Z,57.80
2018-10-21T12:56:53.472Z,57.40
2018-10-21T13:01:44.362Z,57.20
2018-10-21T13:06:35.257Z,57.40
2018-10-21T13:11:26.131Z,57.40
2018-10-21T13:16:17.085Z,57.20
2018-10-21T13:21:07.958Z,56.50
2018-10-21T13:25:58.867Z,56.50
2018-10-21T13:30:49.777Z,56.50
2018-10-21T13:35:40.679Z,56.20
2018-10-21T13:40:31.618Z,56.20
2018-10-21T13:45:22.571Z,56.00
2018-10-21T13:50:13.552Z,56.10
2018-10-21T13:55:04.454Z,56.10
2018-10-21T13:59:55.346Z,56.50
2018-10-21T14:04:46.247Z,56.10
2018-10-21T14:09:37.217Z,55.80
2018-10-21T14:14:28.120Z,55.40
2018-10-21T14:19:19.008Z,55.60
2018-10-21T14:24:09.949Z,55.50
2018-10-21T14:29:01.541Z,55.60
2018-10-21T14:33:52.440Z,55.60
2018-10-21T14:38:44.096Z,56.10
2018-10-21T14:43:35.021Z,55.90
2018-10-21T14:48:25.923Z,56.40
2018-10-21T14:53:16.819Z,56.60
2018-10-21T14:58:07.723Z,56.50
2018-10-21T15:02:58.725Z,56.70
2018-10-21T15:07:49.581Z,56.60
2018-10-21T15:12:40.532Z,56.50
2018-10-21T15:17:31.466Z,56.60
2018-10-21T15:22:23.164Z,56.80
2018-10-21T15:27:14.806Z,56.40
2018-10-21T15:32:05.809Z,56.50
2018-10-21T15:36:56.696Z,56.30
2018-10-21T15:41:48.390Z,56.50
2018-10-21T15:46:39.370Z,56.40
2018-10-21T15:51:30.340Z,56.60
2018-10-21T15:56:21.294Z,56.50
2018-10-21T16:01:12.230Z,56.50
2018-10-21T16:06:03.349Z,56.60
2018-10-21T16:10:54.292Z,56.50
2018-10-21T16:15:45.330Z,56.60
2018-10-21T16:20:36.314Z,56.60
2018-10-21T16:25:28.289Z,56.50
2018-10-21T16:30:19.191Z,56.60
2018-10-21T16:35:10.875Z,56.40
2018-10-21T16:40:02.538Z,56.40
2018-10-21T16:44:53.465Z,56.40
2018-10-21T16:49:44.443Z,56.40
2018-10-21T16:54:35.344Z,56.60
2018-10-21T16:59:26.452Z,56.80
2018-10-21T17:04:17.317Z,56.70
2018-10-21T17:09:08.352Z,56.80
2018-10-21T17:13:59.240Z,56.90
2018-10-21T17:18:50.987Z,57.00
2018-10-21T17:23:41.903Z,56.90
2018-10-21T17:28:33.532Z,57.10
2018-10-21T17:33:24.474Z,56.90
2018-10-21T17:38:15.352Z,57.00
2018-10-21T17:43:06.284Z,57.20
2018-10-21T17:47:57.905Z,58.20
2018-10-21T17:52:48.827Z,58.20
2018-10-21T17:57:40.487Z,58.20
2018-10-21T18:02:31.508Z,58.20
2018-10-21T18:07:22.420Z,58.20
2018-10-21T18:12:14.868Z,58.40
2018-10-21T18:17:05.926Z,58.30
2018-10-21T18:21:56.865Z,58.40
2018-10-21T18:26:47.761Z,58.40
2018-10-21T18:31:39.433Z,58.50
2018-10-21T18:36:31.137Z,58.60
2018-10-21T18:41:22.759Z,58.60
2018-10-21T18:46:13.664Z,58.60
2018-10-21T18:51:04.540Z,58.60
2018-10-21T18:55:56.178Z,58.70
2018-10-21T19:00:47.090Z,58.70
2018-10-21T19:05:38.711Z,58.70
2018-10-21T19:10:29.681Z,58.70
2018-10-21T19:15:20.591Z,58.70
2018-10-21T19:20:12.228Z,58.80
2018-10-21T19:25:03.113Z,58.80
2018-10-21T19:29:54.043Z,58.80
2018-10-21T19:34:46.461Z,58.80
2018-10-21T19:39:37.352Z,58.80
2018-10-21T19:44:28.289Z,58.80
2018-10-21T19:49:19.194Z,58.80
2018-10-21T19:54:10.085Z,58.80
2018-10-21T19:59:00.988Z,58.90
2018-10-21T20:03:51.881Z,59.50
2018-10-21T20:08:42.771Z,58.90
2018-10-21T20:13:33.673Z,58.90
2018-10-21T20:18:24.640Z,59.00
2018-10-21T20:23:16.213Z,59.60
2018-10-21T20:28:07.887Z,59.50
2018-10-21T20:32:58.837Z,59.10
2018-10-21T20:37:49.738Z,59.10
2018-10-21T20:42:41.382Z,59.70
2018-10-21T20:47:32.275Z,59.10
2018-10-21T20:52:23.175Z,59.10
2018-10-21T20:57:14.795Z,59.10
2018-10-21T21:02:05.671Z,59.10
2018-10-21T21:06:56.550Z,59.20
2018-10-21T21:11:47.491Z,59.20
2018-10-21T21:16:38.428Z,59.20
2018-10-21T21:21:30.146Z,59.80
2018-10-21T21:26:21.094Z,59.20
2018-10-21T21:31:12.714Z,59.20
2018-10-21T21:36:03.670Z,59.20
2018-10-21T21:40:56.028Z,59.30
2018-10-21T21:45:46.924Z,59.20
2018-10-21T21:50:38.570Z,59.30
2018-10-21T21:55:29.456Z,59.20
2018-10-21T22:00:20.367Z,59.30
2018-10-21T22:05:12.013Z,59.40
2018-10-21T22:10:02.942Z,59.30
2018-10-21T22:14:54.573Z,59.40
2018-10-21T22:19:45.497Z,59.40
2018-10-21T22:24:36.458Z,59.30
2018-10-21T22:29:28.157Z,59.50
2018-10-21T22:34:19.172Z,59.40
2018-10-21T22:39:09.968Z,59.50
2018-10-21T22:44:02.334Z,59.60
2018-10-21T22:48:53.259Z,59.60
2018-10-21T22:53:44.953Z,59.80
2018-10-21T22:58:36.624Z,59.70
2018-10-21T23:03:28.351Z,59.70
2018-10-21T23:08:19.235Z,59.70
2018-10-21T23:13:10.156Z,59.80
2018-10-21T23:18:01.816Z,59.80
2018-10-21T23:22:52.677Z,59.70
2018-10-21T23:27:44.363Z,59.80
2018-10-21T23:32:36.122Z,59.80
2018-10-21T23:37:27.055Z,59.80
2018-10-21T23:42:18.079Z,60.00
2018-10-21T23:47:08.879Z,60.20
2018-10-21T23:51:59.865Z,60.40
2018-10-21T23:56:50.680Z,60.60
